Portada
METAR-TAF:

METAR-TAF

Aeropuertos :

Aeropuerto Internacional de Dakar-Yoff/Léopold Sédar Senghor

Dakar, Senegal

latitud: 14-44N, longitud: 017-30W, altitud: 27 m

Observación

El informe se hizo hace 30 minutos, a las 18:00 UTC
Viento 8 kt del norte
Temperatura 23°C
Humedad 73%
Presión 1012 hPa
Visibilidad 10 km o más
sin nubes por debajo de 1500 m y sin presencia de cumulonimbus.

METAR: GOOY 161800Z 36008KT CAVOK 23/18 Q1012

Hora: 18:30 (18:30 UTC)

Pronóstico

El informe se hizo hace 1 hora y 0 minutos, a las 17:30 UTC
Pronóstico válido del 16 a las 18 UTC al 17 a las 24 UTC
Viento 10 kt del norte
Visibilidad: 8000 m

TAF: GOOY 161730Z 1618/1724 35010KT 8000 NSC

Observaciones y pronósticos meteorológicos de más de 4000 aeropuertos (mensajes METAR y TAF).

Los puntos amarillos y rojos representan las estaciones disponibles.

Ponga el ratón en el punto deseado para ver el nombre de la estación.

Haga clic para ver las observaciones y los pronósticos meteorológicos.

Para cambiar el mapa : haga clic en los botones verdes con una cruz de color negro para hacer un zoom, en el botón verde con un guión para alejar o en las flechas verdes para mapas adyacentes.


METAR-TAF: